Time;durP1;ratioP1;P1;durP2;ratioP2;P2;SDS_P1;SDS_P2;PMS_P1;PMS_P2;Temp;Humidity;BMP_temperature;BMP_pressure;BME280_temperature;BME280_humidity;BME280_pressure;Samples;Min_cycle;Max_cycle;Signal;HPM_P1;HPM_P2
2022/04/22 00:01:31;;;;;;;6.35;3.60;;;10.30;85.90;;;;;;6231935;28;20120;-84
2022/04/22 00:04:33;;;;;;;6.78;3.50;;;10.40;86.10;;;;;;6225282;28;20060;-85
2022/04/22 00:07:35;;;;;;;9.48;4.20;;;10.20;86.20;;;;;;6227202;28;20050;-85
2022/04/22 00:11:29;;;;;;;6.45;4.20;;;10.30;86.50;;;;;;6226268;28;20050;-84
2022/04/22 00:14:04;;;;;;;7.63;4.05;;;10.30;86.70;;;;;;6222768;28;20034;-85
2022/04/22 00:17:06;;;;;;;8.02;3.92;;;10.30;86.90;;;;;;6221189;28;20140;-85
2022/04/22 00:20:10;;;;;;;7.72;4.72;;;10.30;86.90;;;;;;6220291;28;20046;-86
2022/04/22 00:23:13;;;;;;;7.72;4.15;;;10.30;87.30;;;;;;6222640;28;20129;-84
2022/04/22 00:26:16;;;;;;;8.20;3.90;;;10.30;87.60;;;;;;6222374;28;20137;-85
2022/04/22 00:29:18;;;;;;;10.27;4.65;;;10.30;87.70;;;;;;6222370;28;20054;-85
2022/04/22 00:32:19;;;;;;;6.70;4.43;;;10.30;87.80;;;;;;6222817;28;20049;-85
2022/04/22 00:35:21;;;;;;;8.25;6.00;;;10.30;87.90;;;;;;6222379;28;20057;-84
2022/04/22 00:38:23;;;;;;;11.75;5.68;;;10.30;88.20;;;;;;6222766;28;20050;-84
2022/04/22 00:41:26;;;;;;;8.75;5.50;;;10.20;88.30;;;;;;6224009;28;20092;-85
2022/04/22 00:44:28;;;;;;;8.65;5.78;;;10.30;88.50;;;;;;6223316;28;20125;-85
2022/04/22 00:47:29;;;;;;;14.35;5.82;;;10.20;88.60;;;;;;6239130;28;20073;-85
2022/04/22 00:50:31;;;;;;;8.18;5.30;;;10.30;88.80;;;;;;6223269;28;20095;-86
2022/04/22 00:53:35;;;;;;;12.45;5.95;;;10.20;89.00;;;;;;6230066;28;20411;-85
2022/04/22 00:56:39;;;;;;;10.70;6.50;;;10.20;88.80;;;;;;6229891;28;20057;-85
2022/04/22 00:59:41;;;;;;;9.30;5.53;;;10.20;88.80;;;;;;6230716;28;20127;-84
2022/04/22 01:02:43;;;;;;;12.98;6.85;;;10.20;89.00;;;;;;6231121;28;20053;-85
2022/04/22 01:12:28;;;;;;;12.25;6.82;;;10.10;89.90;;;;;;6236638;28;20049;-84
2022/04/22 01:15:30;;;;;;;17.13;6.80;;;10.10;90.10;;;;;;6258226;28;20049;-84
2022/04/22 01:18:32;;;;;;;18.50;7.95;;;10.00;90.20;;;;;;6256268;28;20048;-84
2022/04/22 01:21:35;;;;;;;12.23;6.78;;;9.90;90.30;;;;;;6255580;28;20116;-84
2022/04/22 01:24:37;;;;;;;12.77;6.88;;;9.90;90.70;;;;;;6257490;28;20049;-85
2022/04/22 01:27:39;;;;;;;17.45;7.43;;;9.80;90.50;;;;;;6256063;28;20045;-85
2022/04/22 01:30:41;;;;;;;16.20;7.93;;;9.90;90.70;;;;;;6255857;28;20120;-84
2022/04/22 01:33:43;;;;;;;13.15;7.78;;;9.80;90.80;;;;;;6257854;28;20410;-83
2022/04/22 01:36:46;;;;;;;14.27;6.95;;;9.80;91.00;;;;;;6263293;28;20057;-83
2022/04/22 01:39:48;;;;;;;23.90;8.35;;;9.70;91.10;;;;;;6261736;28;20041;-84
2022/04/22 01:42:49;;;;;;;16.65;8.10;;;9.70;91.20;;;;;;6261067;28;20450;-83
2022/04/22 01:45:52;;;;;;;11.40;6.70;;;9.70;91.30;;;;;;6261082;28;20041;-83
2022/04/22 01:48:54;;;;;;;13.65;8.07;;;9.70;91.40;;;;;;6260220;28;20057;-83
2022/04/22 01:51:58;;;;;;;15.30;8.30;;;9.60;91.50;;;;;;6261313;28;20180;-83
2022/04/22 01:54:59;;;;;;;17.00;8.05;;;9.60;91.60;;;;;;6255433;28;20056;-82
2022/04/22 01:58:01;;;;;;;19.95;8.70;;;9.50;91.60;;;;;;6234026;28;20134;-82
2022/04/22 02:01:03;;;;;;;20.52;8.50;;;9.50;91.80;;;;;;6235163;28;20192;-82
2022/04/22 02:04:05;;;;;;;14.80;8.55;;;9.50;91.80;;;;;;6230190;28;20046;-83
2022/04/22 02:07:08;;;;;;;10.57;6.35;;;9.50;91.90;;;;;;6231191;28;20049;-83
2022/04/22 02:10:10;;;;;;;13.38;9.38;;;9.50;92.00;;;;;;6229757;28;20474;-83
2022/04/22 02:13:12;;;;;;;16.52;9.80;;;9.40;92.10;;;;;;6229957;28;20069;-83
2022/04/22 02:16:14;;;;;;;19.60;9.02;;;9.40;92.20;;;;;;6230230;28;20064;-83
2022/04/22 02:19:16;;;;;;;16.20;8.85;;;9.30;92.30;;;;;;6229561;28;20135;-82
2022/04/22 02:22:19;;;;;;;18.30;8.15;;;9.30;92.30;;;;;;6229181;28;20180;-83
2022/04/22 02:25:21;;;;;;;20.27;8.50;;;9.40;92.30;;;;;;6229039;28;20184;-83
2022/04/22 02:28:35;;;;;;;14.15;8.15;;;9.40;92.40;;;;;;6231692;28;20087;-83
2022/04/22 02:31:36;;;;;;;18.33;9.02;;;9.40;92.40;;;;;;6228753;28;20049;-83
2022/04/22 02:34:38;;;;;;;16.95;9.68;;;9.30;92.40;;;;;;6227213;28;20133;-82
2022/04/22 02:37:41;;;;;;;19.98;8.77;;;9.30;92.40;;;;;;6228268;28;20046;-83
2022/04/22 02:47:22;;;;;;;18.52;9.05;;;9.30;92.40;;;;;;6227248;28;20522;-82
2022/04/22 02:50:24;;;;;;;18.10;8.25;;;9.30;92.30;;;;;;6226310;28;20574;-83
2022/04/22 02:53:27;;;;;;;20.98;9.85;;;9.40;92.50;;;;;;6225920;28;20463;-83
2022/04/22 02:56:30;;;;;;;17.35;9.75;;;9.30;92.50;;;;;;6225571;28;20495;-83
2022/04/22 02:59:33;;;;;;;16.98;9.60;;;9.30;92.50;;;;;;6248638;28;20050;-83
2022/04/22 03:02:36;;;;;;;20.92;10.48;;;9.30;92.60;;;;;;6244629;28;20106;-84
2022/04/22 03:05:39;;;;;;;23.05;10.13;;;9.20;92.60;;;;;;6235472;28;20048;-83
2022/04/22 03:08:42;;;;;;;20.63;10.23;;;9.20;92.80;;;;;;6235032;28;20053;-83
2022/04/22 03:11:44;;;;;;;22.35;11.15;;;9.20;92.90;;;;;;6235177;28;20042;-84
2022/04/22 03:14:45;;;;;;;18.15;11.30;;;9.10;92.90;;;;;;6233696;28;20050;-84
2022/04/22 03:17:49;;;;;;;16.90;10.05;;;9.10;92.90;;;;;;6233010;28;20052;-83
2022/04/22 03:20:51;;;;;;;18.52;11.23;;;9.10;93.00;;;;;;6236053;28;20053;-83
2022/04/22 03:23:56;;;;;;;19.63;9.75;;;9.00;92.90;;;;;;6233084;28;20093;-83
2022/04/22 03:26:58;;;;;;;23.48;12.60;;;9.00;93.00;;;;;;6231976;28;20052;-83
2022/04/22 03:30:02;;;;;;;22.40;10.75;;;9.00;93.00;;;;;;6233502;28;20125;-83
2022/04/22 03:33:04;;;;;;;23.20;11.02;;;9.00;93.10;;;;;;6233408;28;20092;-83
2022/04/22 03:36:06;;;;;;;18.13;11.63;;;9.00;93.20;;;;;;6231343;28;20124;-83
2022/04/22 03:39:09;;;;;;;22.50;11.90;;;9.00;93.20;;;;;;6230922;28;20045;-83
2022/04/22 03:42:12;;;;;;;22.15;12.48;;;9.00;93.20;;;;;;6231363;28;20067;-83
2022/04/22 03:45:13;;;;;;;22.45;11.77;;;9.00;93.10;;;;;;6230732;28;20049;-82
2022/04/22 03:48:16;;;;;;;24.63;11.05;;;9.00;93.00;;;;;;6230688;28;20519;-83
2022/04/22 03:51:17;;;;;;;19.73;10.77;;;9.00;93.10;;;;;;6230407;28;20052;-83
2022/04/22 03:54:23;;;;;;;21.73;11.90;;;8.90;93.30;;;;;;6230580;28;20666;-83
2022/04/22 04:00:46;;;;;;;19.58;10.32;;;8.90;93.10;;;;;;6204128;28;20488;-82
2022/04/22 04:03:47;;;;;;;21.13;11.18;;;8.80;93.30;;;;;;6203748;28;20046;-82
2022/04/22 04:06:49;;;;;;;21.73;11.68;;;8.80;93.40;;;;;;6202977;28;20050;-82
2022/04/22 04:16:31;;;;;;;23.25;12.57;;;8.60;93.60;;;;;;6205715;28;20054;-82
2022/04/22 04:26:14;;;;;;;24.13;11.80;;;8.60;94.00;;;;;;6201403;28;20042;-82
2022/04/22 04:29:16;;;;;;;23.52;12.10;;;8.60;93.90;;;;;;6201818;28;20500;-82
2022/04/22 04:32:18;;;;;;;26.85;13.20;;;8.60;93.90;;;;;;6214825;28;20547;-83
2022/04/22 04:35:20;;;;;;;28.05;13.18;;;8.60;93.80;;;;;;6226408;28;20077;-82
2022/04/22 04:38:22;;;;;;;25.70;12.23;;;8.70;93.70;;;;;;6226727;28;20076;-83
2022/04/22 04:41:25;;;;;;;20.83;11.82;;;8.70;93.60;;;;;;6238444;28;20053;-82
2022/04/22 04:44:27;;;;;;;23.15;13.05;;;8.80;93.60;;;;;;6254021;28;20055;-83
2022/04/22 04:47:29;;;;;;;24.75;13.18;;;8.90;93.60;;;;;;6249128;28;20649;-82
2022/04/22 04:50:31;;;;;;;24.48;13.05;;;8.90;93.40;;;;;;6253505;28;20045;-82
2022/04/22 04:53:33;;;;;;;24.30;13.55;;;8.90;93.20;;;;;;6251300;28;20037;-83
2022/04/22 04:56:36;;;;;;;25.65;13.88;;;9.00;93.20;;;;;;6251297;28;20053;-82
2022/04/22 04:59:37;;;;;;;23.88;13.50;;;9.10;93.30;;;;;;6250851;28;20205;-83
2022/04/22 05:02:40;;;;;;;27.58;13.82;;;9.20;92.90;;;;;;6265381;28;20053;-83
2022/04/22 05:05:42;;;;;;;27.42;13.20;;;9.20;92.80;;;;;;6260381;28;20115;-83
2022/04/22 05:08:44;;;;;;;29.52;12.80;;;9.40;92.60;;;;;;6260918;28;20118;-84
2022/04/22 05:11:47;;;;;;;24.80;13.00;;;9.50;92.50;;;;;;6262713;28;20128;-82
2022/04/22 05:14:49;;;;;;;24.83;12.82;;;9.60;92.30;;;;;;6258340;28;20068;-83
2022/04/22 05:17:51;;;;;;;25.33;11.43;;;9.70;92.10;;;;;;6256296;28;20049;-83
2022/04/22 05:20:53;;;;;;;27.15;13.63;;;9.80;91.90;;;;;;6255106;28;20046;-82
2022/04/22 05:23:55;;;;;;;35.22;17.45;;;9.90;91.70;;;;;;6255676;28;20065;-82
2022/04/22 05:26:59;;;;;;;37.25;17.25;;;10.00;91.60;;;;;;6253512;28;20056;-84
2022/04/22 05:33:20;;;;;;;29.70;15.23;;;10.30;91.40;;;;;;6250803;28;20045;-83
2022/04/22 05:36:22;;;;;;;23.90;14.07;;;10.50;91.10;;;;;;6251780;28;20049;-83
2022/04/22 05:39:23;;;;;;;20.02;12.25;;;10.70;90.90;;;;;;6256335;28;20052;-83
2022/04/22 05:42:26;;;;;;;24.55;13.40;;;11.00;90.60;;;;;;6256592;28;20045;-83
2022/04/22 05:45:29;;;;;;;25.05;12.50;;;11.30;90.30;;;;;;6262329;28;20101;-84
2022/04/22 05:48:30;;;;;;;24.42;12.77;;;11.70;89.70;;;;;;6234149;28;20053;-83
2022/04/22 05:51:32;;;;;;;22.65;12.93;;;12.30;87.50;;;;;;6259143;28;20045;-84
2022/04/22 05:54:36;;;;;;;24.88;13.38;;;13.20;85.30;;;;;;6231666;28;20138;-83
2022/04/22 05:57:39;;;;;;;24.25;12.02;;;14.50;81.00;;;;;;6230099;28;20049;-84
2022/04/22 06:00:41;;;;;;;21.13;11.52;;;15.50;76.90;;;;;;6242316;28;20513;-83
2022/04/22 06:03:43;;;;;;;24.00;12.30;;;16.20;73.90;;;;;;6253324;28;20041;-83
2022/04/22 06:06:45;;;;;;;18.20;11.23;;;16.50;71.50;;;;;;6257447;28;20049;-84
2022/04/22 06:13:08;;;;;;;20.50;12.48;;;17.30;68.80;;;;;;6252950;28;20510;-84
2022/04/22 06:16:09;;;;;;;20.10;10.85;;;17.60;67.20;;;;;;6252868;28;20041;-84
2022/04/22 06:19:11;;;;;;;22.60;13.05;;;17.80;66.90;;;;;;6252553;28;20048;-84
2022/04/22 06:22:13;;;;;;;21.73;12.57;;;18.00;66.10;;;;;;6254674;28;20147;-83
2022/04/22 06:25:15;;;;;;;20.58;12.02;;;18.10;64.50;;;;;;6252961;28;20136;-83
2022/04/22 06:28:18;;;;;;;21.73;10.82;;;18.60;63.70;;;;;;6259605;28;20034;-84
2022/04/22 06:31:20;;;;;;;19.42;11.48;;;19.30;61.40;;;;;;6277937;28;20064;-84
2022/04/22 06:34:22;;;;;;;16.73;11.25;;;19.90;59.60;;;;;;6263905;28;20146;-83
2022/04/22 06:37:25;;;;;;;16.60;9.88;;;20.10;56.40;;;;;;6260726;28;20050;-84
2022/04/22 06:47:09;;;;;;;21.17;11.85;;;19.30;58.60;;;;;;6258631;28;20049;-85
2022/04/22 06:50:17;;;;;;;20.60;12.25;;;19.00;58.50;;;;;;6257041;28;20578;-84
2022/04/22 06:53:20;;;;;;;19.65;11.52;;;18.80;59.20;;;;;;6256236;28;20049;-86
2022/04/22 06:56:26;;;;;;;20.23;11.70;;;18.60;59.50;;;;;;6249472;28;20053;-84
2022/04/22 06:59:31;;;;;;;15.68;9.35;;;18.60;59.70;;;;;;6227714;28;20050;-83
2022/04/22 07:02:36;;;;;;;18.30;11.02;;;18.20;59.60;;;;;;6228705;28;20049;-85
2022/04/22 07:05:40;;;;;;;17.63;10.88;;;18.10;60.80;;;;;;6229372;28;20049;-84
2022/04/22 07:08:46;;;;;;;19.80;11.70;;;18.00;59.90;;;;;;6228881;28;20053;-85
2022/04/22 07:11:55;;;;;;;17.05;10.95;;;17.60;61.10;;;;;;6230198;28;20046;-85
2022/04/22 07:15:16;;;;;;;19.08;11.00;;;17.10;61.30;;;;;;6229715;28;20054;-84
2022/04/22 07:18:32;;;;;;;19.55;9.45;;;17.00;62.90;;;;;;6215261;28;20108;-84
2022/04/22 07:21:34;;;;;;;18.20;11.23;;;17.10;62.30;;;;;;6229597;28;20052;-86
2022/04/22 07:24:37;;;;;;;21.00;12.07;;;17.80;62.70;;;;;;6230876;28;20096;-84
2022/04/22 07:27:40;;;;;;;24.65;10.25;;;18.80;57.10;;;;;;6246062;28;20523;-84
2022/04/22 07:30:50;;;;;;;18.65;11.60;;;18.10;57.80;;;;;;6260859;28;20139;-84
2022/04/22 07:33:53;;;;;;;18.00;11.55;;;17.10;60.50;;;;;;6275818;22;20123;-85
2022/04/22 07:36:56;;;;;;;20.92;11.75;;;16.40;63.30;;;;;;6224422;28;20050;-84
2022/04/22 07:39:58;;;;;;;19.67;11.27;;;16.40;65.10;;;;;;6226663;28;20046;-86
2022/04/22 07:49:51;;;;;;;20.63;11.35;;;18.20;58.90;;;;;;6199251;28;20153;-84
2022/04/22 07:52:52;;;;;;;14.63;8.55;;;17.40;60.20;;;;;;6228902;28;20470;-83
2022/04/22 07:55:54;;;;;;;17.58;11.23;;;17.30;61.00;;;;;;6232617;28;20045;-83
2022/04/22 07:58:56;;;;;;;16.77;11.25;;;17.00;61.90;;;;;;6242403;28;20056;-84
2022/04/22 08:01:59;;;;;;;17.98;11.55;;;16.90;62.20;;;;;;6249984;28;20065;-83
2022/04/22 08:05:01;;;;;;;22.70;12.00;;;17.20;62.30;;;;;;6248406;28;20084;-84
2022/04/22 08:08:03;;;;;;;17.75;11.23;;;17.60;60.90;;;;;;6250344;28;20045;-84
2022/04/22 08:11:05;;;;;;;15.77;10.27;;;19.00;57.30;;;;;;6253362;28;20117;-83
2022/04/22 08:14:07;;;;;;;18.38;9.05;;;19.40;55.80;;;;;;6252016;28;20125;-84
2022/04/22 08:17:10;;;;;;;18.58;10.90;;;21.00;52.50;;;;;;6248493;28;20053;-84
2022/04/22 08:20:12;;;;;;;14.23;8.65;;;21.70;49.40;;;;;;6251734;28;20113;-82
2022/04/22 08:23:16;;;;;;;16.73;9.77;;;22.20;48.00;;;;;;6249122;28;20623;-85
2022/04/22 08:26:18;;;;;;;15.38;10.93;;;23.20;46.30;;;;;;6222056;28;20050;-84
2022/04/22 08:29:20;;;;;;;14.27;10.05;;;23.70;43.80;;;;;;6236079;28;20056;-84
2022/04/22 08:32:23;;;;;;;19.48;10.43;;;24.10;42.10;;;;;;6248353;28;20053;-84
2022/04/22 08:35:25;;;;;;;17.65;11.10;;;23.90;42.00;;;;;;6246284;28;20195;-85
2022/04/22 08:38:27;;;;;;;15.60;11.00;;;24.20;41.50;;;;;;6246256;28;20048;-85
2022/04/22 08:41:29;;;;;;;14.85;10.05;;;24.00;41.10;;;;;;6246884;28;20041;-85
2022/04/22 08:44:31;;;;;;;15.45;9.35;;;23.90;43.10;;;;;;6247536;28;20055;-85
2022/04/22 08:50:55;;;;;;;12.88;9.60;;;24.80;40.20;;;;;;6247127;28;20052;-85
2022/04/22 08:53:57;;;;;;;13.35;9.45;;;24.60;39.50;;;;;;6246841;28;20038;-85
2022/04/22 08:57:00;;;;;;;13.45;8.48;;;24.30;40.30;;;;;;6236896;28;20087;-85
2022/04/22 09:00:05;;;;;;;13.27;8.93;;;24.20;40.10;;;;;;6221895;28;20073;-84
2022/04/22 09:03:09;;;;;;;13.27;9.27;;;23.80;40.60;;;;;;6222005;28;20052;-84
2022/04/22 09:06:11;;;;;;;15.73;8.35;;;22.60;42.80;;;;;;6221933;28;20052;-84
2022/04/22 09:09:14;;;;;;;15.65;9.02;;;22.20;43.50;;;;;;6222421;28;20189;-84
2022/04/22 09:12:16;;;;;;;15.35;7.95;;;22.30;44.20;;;;;;6224379;28;20046;-84
2022/04/22 09:15:18;;;;;;;13.20;8.75;;;23.10;42.70;;;;;;6227051;28;20529;-85
2022/04/22 09:18:24;;;;;;;12.57;9.00;;;23.50;42.10;;;;;;6226722;28;20054;-85
2022/04/22 09:21:26;;;;;;;15.60;8.88;;;23.90;41.50;;;;;;6227735;28;20050;-84
2022/04/22 09:24:28;;;;;;;11.00;7.68;;;24.20;40.70;;;;;;6227502;28;20046;-84
2022/04/22 09:27:35;;;;;;;14.85;8.93;;;23.80;40.80;;;;;;6241430;28;20053;-84
2022/04/22 09:30:37;;;;;;;16.58;9.75;;;23.80;41.20;;;;;;6251167;28;20049;-85
2022/04/22 09:33:47;;;;;;;14.68;8.15;;;23.90;41.40;;;;;;6251498;28;20042;-85
2022/04/22 09:43:33;;;;;;;14.15;7.97;;;24.90;39.80;;;;;;6254499;28;20077;-85
2022/04/22 09:46:35;;;;;;;13.18;8.52;;;25.00;39.00;;;;;;6252983;28;20410;-84
2022/04/22 09:49:43;;;;;;;15.02;8.73;;;25.00;38.30;;;;;;6250984;28;20045;-85
2022/04/22 09:52:46;;;;;;;17.38;8.20;;;24.30;39.00;;;;;;6252506;28;20045;-84
2022/04/22 09:55:55;;;;;;;13.07;7.40;;;23.90;40.40;;;;;;6237505;28;20469;-83
2022/04/22 09:58:57;;;;;;;10.48;7.25;;;23.40;41.10;;;;;;6245995;28;20437;-84
2022/04/22 10:02:00;;;;;;;9.70;7.22;;;23.00;42.30;;;;;;6253238;28;20045;-84
2022/04/22 10:05:05;;;;;;;12.32;7.45;;;22.70;42.40;;;;;;6246478;28;20053;-84
2022/04/22 10:08:08;;;;;;;12.15;6.63;;;22.40;42.70;;;;;;6230779;28;20412;-82
2022/04/22 10:11:13;;;;;;;14.00;5.53;;;21.90;44.00;;;;;;6254960;28;20224;-84
2022/04/22 10:14:20;;;;;;;11.80;7.10;;;21.50;44.70;;;;;;6256675;28;20045;-84
2022/04/22 10:17:23;;;;;;;9.15;5.10;;;20.90;45.80;;;;;;6260082;28;20046;-84
2022/04/22 10:20:27;;;;;;;21.02;7.85;;;20.80;46.40;;;;;;6254075;28;20135;-84
2022/04/22 10:23:30;;;;;;;9.48;6.80;;;20.70;47.10;;;;;;6251147;28;20116;-85
2022/04/22 10:26:32;;;;;;;11.95;7.07;;;21.10;47.00;;;;;;6243157;28;20419;-84
2022/04/22 10:29:35;;;;;;;10.27;7.50;;;21.40;46.50;;;;;;6249269;28;20539;-85
2022/04/22 10:32:39;;;;;;;8.95;6.82;;;21.90;46.30;;;;;;6251709;28;20052;-84
2022/04/22 10:35:45;;;;;;;10.55;6.82;;;22.40;45.10;;;;;;6250863;28;20411;-84
2022/04/22 10:38:48;;;;;;;11.50;7.22;;;22.40;44.00;;;;;;6250081;28;20128;-84
2022/04/22 10:41:51;;;;;;;9.07;6.38;;;22.00;44.30;;;;;;6252646;28;20056;-84
2022/04/22 10:48:24;;;;;;;8.65;6.13;;;22.00;45.70;;;;;;6250787;28;20049;-81
2022/04/22 10:52:09;;;;;;;8.90;6.38;;;21.70;45.20;;;;;;6252692;28;20050;-80
2022/04/22 10:55:12;;;;;;;8.00;5.38;;;21.40;45.50;;;;;;6251930;28;20037;-81
2022/04/22 10:58:23;;;;;;;8.13;5.57;;;21.40;46.50;;;;;;6244962;28;20049;-79
2022/04/22 11:01:31;;;;;;;8.27;5.72;;;22.10;45.80;;;;;;6256367;28;20514;-81
2022/04/22 11:04:34;;;;;;;;;;;22.60;44.30;;;;;;6251629;28;20050;-81
2022/04/22 11:07:55;;;;;;;10.07;7.07;;;22.60;43.60;;;;;;6253228;28;19921;-80
2022/04/22 11:11:13;;;;;;;9.73;6.40;;;22.30;43.40;;;;;;6255947;28;20056;-80
2022/04/22 11:14:19;;;;;;;12.70;6.30;;;21.90;44.90;;;;;;6254901;28;20045;-79
2022/04/22 11:17:34;;;;;;;7.40;5.72;;;21.70;45.60;;;;;;6257245;28;20399;-82
2022/04/22 11:20:37;;;;;;;9.73;5.80;;;21.90;45.30;;;;;;6253758;28;20128;-80
2022/04/22 11:23:44;;;;;;;9.10;6.93;;;22.30;44.70;;;;;;6253195;28;20049;-81
2022/04/22 11:26:46;;;;;;;9.63;6.78;;;22.20;44.10;;;;;;6245804;28;20046;-80
2022/04/22 11:29:48;;;;;;;9.93;6.88;;;22.00;44.90;;;;;;6254718;28;20052;-81
2022/04/22 11:32:53;;;;;;;10.85;6.53;;;22.10;44.80;;;;;;6256418;28;20054;-81
2022/04/22 11:35:57;;;;;;;7.47;5.15;;;22.30;44.50;;;;;;6254036;28;20121;-81
2022/04/22 11:39:00;;;;;;;8.68;6.05;;;22.40;43.60;;;;;;6253745;28;20046;-81
2022/04/22 11:42:02;;;;;;;8.48;4.50;;;22.10;44.10;;;;;;6253122;28;20046;-81
2022/04/22 11:45:06;;;;;;;8.10;5.68;;;22.40;44.10;;;;;;6255202;28;20128;-81
2022/04/22 11:48:08;;;;;;;7.85;5.82;;;22.40;43.70;;;;;;6252929;28;20415;-81
2022/04/22 11:51:10;;;;;;;6.72;5.70;;;22.80;43.80;;;;;;6251936;28;20049;-82
2022/04/22 11:54:22;;;;;;;7.38;4.82;;;23.50;42.90;;;;;;6249770;28;20052;-84
2022/04/22 11:57:24;;;;;;;8.27;4.30;;;23.30;41.90;;;;;;6228519;28;20046;-85
2022/04/22 12:10:34;;;;;;;8.80;5.70;;;23.90;41.40;;;;;;6224773;28;20033;-85
2022/04/22 12:13:41;;;;;;;8.52;4.93;;;23.60;41.70;;;;;;6224945;28;20041;-84
2022/04/22 12:16:43;;;;;;;10.48;4.72;;;23.60;40.50;;;;;;6225117;28;20104;-85
2022/04/22 12:19:45;;;;;;;11.23;5.68;;;23.10;42.00;;;;;;6223040;28;20176;-86
2022/04/22 12:22:48;;;;;;;7.22;4.57;;;23.20;42.30;;;;;;6224942;28;20120;-84
2022/04/22 12:25:55;;;;;;;7.65;5.38;;;23.50;41.30;;;;;;6233118;28;20049;-85
2022/04/22 12:28:59;;;;;;;7.57;5.80;;;23.50;41.60;;;;;;6230182;28;20049;-84
2022/04/22 12:32:01;;;;;;;6.13;4.57;;;23.80;41.20;;;;;;6226302;28;20053;-86
2022/04/22 12:35:14;;;;;;;6.57;4.55;;;23.90;41.00;;;;;;6227239;28;20049;-84
2022/04/22 12:38:17;;;;;;;10.52;5.38;;;24.30;39.90;;;;;;6224688;28;20060;-85
2022/04/22 12:41:22;;;;;;;8.30;5.60;;;23.70;40.30;;;;;;6226914;28;20161;-83
2022/04/22 12:44:25;;;;;;;7.30;5.38;;;23.20;41.00;;;;;;6228624;28;20054;-84
2022/04/22 12:54:11;;;;;;;8.93;4.63;;;22.40;42.80;;;;;;6225167;28;20042;-84
2022/04/22 12:57:20;;;;;;;8.45;5.18;;;22.60;42.80;;;;;;6229449;28;20057;-84
2022/04/22 13:00:22;;;;;;;7.00;5.35;;;22.70;41.90;;;;;;6250531;28;20176;-84
2022/04/22 13:03:36;;;;;;;7.70;4.80;;;22.70;41.80;;;;;;6250264;28;20400;-83
2022/04/22 13:06:39;;;;;;;6.72;4.43;;;22.50;42.60;;;;;;6250521;28;20045;-83
2022/04/22 13:09:41;;;;;;;8.68;6.20;;;22.40;42.50;;;;;;6226664;28;20168;-82
2022/04/22 13:12:45;;;;;;;8.07;5.30;;;22.00;43.10;;;;;;6227440;28;20050;-83
2022/04/22 13:15:47;;;;;;;8.95;5.95;;;21.80;43.70;;;;;;6226582;28;20132;-83
2022/04/22 13:18:49;;;;;;;7.88;5.95;;;21.80;43.70;;;;;;6225482;28;20364;-82
2022/04/22 13:21:51;;;;;;;7.22;5.43;;;21.80;43.60;;;;;;6225645;28;20543;-82
2022/04/22 13:24:53;;;;;;;8.80;5.22;;;22.00;44.10;;;;;;6227518;28;20042;-82
2022/04/22 13:27:56;;;;;;;9.95;5.15;;;22.50;43.60;;;;;;6234299;28;20042;-82
2022/04/22 13:30:58;;;;;;;7.03;3.47;;;22.90;42.80;;;;;;6225423;28;20050;-82
2022/04/22 13:34:01;;;;;;;7.88;4.07;;;23.10;42.20;;;;;;6225406;28;20041;-83
2022/04/22 13:37:04;;;;;;;7.10;5.45;;;23.30;42.00;;;;;;6229713;28;20056;-84
2022/04/22 13:40:06;;;;;;;5.78;3.83;;;23.70;40.90;;;;;;6228507;28;20508;-82
2022/04/22 13:43:09;;;;;;;7.90;4.35;;;24.00;41.10;;;;;;6226978;28;20053;-84
2022/04/22 13:53:02;;;;;;;7.20;4.43;;;24.40;40.00;;;;;;6173240;28;20050;-83
2022/04/22 13:56:05;;;;;;;7.50;4.85;;;24.50;38.80;;;;;;6231718;28;20636;-83
2022/04/22 13:59:08;;;;;;;8.43;4.05;;;23.80;39.30;;;;;;6245274;28;20124;-81
2022/04/22 14:02:10;;;;;;;9.00;4.72;;;23.20;40.40;;;;;;6233866;28;20074;-83
2022/04/22 14:05:12;;;;;;;7.95;4.60;;;23.00;41.70;;;;;;6229559;28;20563;-84
2022/04/22 14:08:14;;;;;;;4.93;3.70;;;23.10;40.80;;;;;;6234235;28;20507;-82
2022/04/22 14:11:16;;;;;;;9.90;4.65;;;23.00;41.40;;;;;;6228024;28;20056;-84
2022/04/22 14:14:22;;;;;;;9.30;4.82;;;23.00;41.60;;;;;;6228197;28;20053;-84
2022/04/22 14:17:24;;;;;;;6.05;3.75;;;23.10;41.10;;;;;;6234402;28;20046;-82
2022/04/22 14:20:25;;;;;;;6.28;4.10;;;23.20;41.50;;;;;;6254977;28;20049;-83
2022/04/22 14:23:27;;;;;;;6.70;5.28;;;23.40;41.80;;;;;;6255636;28;20049;-83
2022/04/22 14:26:30;;;;;;;9.30;3.40;;;23.40;40.60;;;;;;6244493;28;20049;-82
2022/04/22 14:29:33;;;;;;;7.53;4.00;;;23.60;40.90;;;;;;6229065;28;20070;-83
2022/04/22 14:32:35;;;;;;;7.97;4.68;;;23.80;40.90;;;;;;6233941;28;20054;-83
2022/04/22 14:35:37;;;;;;;8.48;4.68;;;23.90;39.80;;;;;;6234142;28;20037;-83
2022/04/22 14:38:39;;;;;;;7.57;4.78;;;23.70;39.80;;;;;;6234074;28;20050;-83
2022/04/22 14:41:41;;;;;;;6.85;4.13;;;23.80;40.10;;;;;;6236339;28;20057;-83
2022/04/22 14:44:44;;;;;;;6.13;4.05;;;23.90;39.90;;;;;;6234162;28;20060;-82
2022/04/22 14:47:46;;;;;;;6.28;4.35;;;23.80;39.50;;;;;;6232184;28;20046;-83
2022/04/22 14:50:48;;;;;;;7.03;3.78;;;23.80;39.50;;;;;;6233546;28;20046;-82
2022/04/22 14:53:50;;;;;;;7.10;3.72;;;23.70;39.20;;;;;;6234137;28;20034;-83
2022/04/22 14:56:52;;;;;;;4.93;4.18;;;23.60;39.40;;;;;;6243222;28;20435;-83
2022/04/22 14:59:55;;;;;;;4.72;3.30;;;23.50;39.00;;;;;;6257731;28;20543;-82
2022/04/22 15:02:56;;;;;;;8.02;4.15;;;23.60;39.70;;;;;;6256798;28;20049;-82
2022/04/22 15:05:58;;;;;;;5.97;4.47;;;23.70;39.30;;;;;;6253652;28;20050;-84
2022/04/22 15:09:02;;;;;;;9.77;4.00;;;23.70;39.40;;;;;;6252215;28;20041;-83
2022/04/22 15:12:04;;;;;;;6.25;4.05;;;23.90;39.40;;;;;;6228514;28;20500;-82
2022/04/22 15:15:08;;;;;;;6.07;4.25;;;24.00;39.20;;;;;;6227051;28;20045;-81
2022/04/22 15:24:49;;;;;;;7.25;4.28;;;23.00;39.70;;;;;;6229396;28;20070;-83
2022/04/22 15:27:51;;;;;;;7.22;4.43;;;22.80;40.80;;;;;;6243842;28;20049;-82
2022/04/22 15:31:14;;;;;;;5.00;3.92;;;22.80;40.50;;;;;;6253537;28;20041;-83
2022/04/22 15:34:16;;;;;;;6.47;3.95;;;22.90;40.60;;;;;;6252107;28;20529;-83
2022/04/22 15:37:18;;;;;;;5.55;3.75;;;22.90;40.80;;;;;;6252175;28;20065;-83
2022/04/22 15:40:20;;;;;;;7.55;4.32;;;22.80;40.70;;;;;;6252564;28;20080;-82
2022/04/22 15:43:21;;;;;;;5.05;3.67;;;22.90;40.30;;;;;;6252181;28;20053;-82
2022/04/22 15:46:25;;;;;;;7.65;3.38;;;23.20;40.60;;;;;;6250460;28;20065;-83
2022/04/22 15:49:27;;;;;;;6.88;3.13;;;23.40;40.60;;;;;;6259049;28;20060;-83
2022/04/22 15:52:28;;;;;;;8.80;4.40;;;23.80;39.40;;;;;;6260392;28;20495;-82
2022/04/22 15:55:31;;;;;;;7.28;3.85;;;23.80;39.30;;;;;;6257022;28;20045;-82
2022/04/22 15:58:34;;;;;;;5.85;3.72;;;23.60;38.50;;;;;;6246594;28;20053;-82
2022/04/22 16:01:40;;;;;;;4.60;3.15;;;23.20;39.10;;;;;;6257385;28;20501;-84
2022/04/22 16:04:49;;;;;;;14.32;7.47;;;23.00;40.40;;;;;;6247252;28;20050;-84
2022/04/22 16:07:51;;;;;;;8.85;6.20;;;23.00;40.40;;;;;;6187808;28;20056;-83
2022/04/22 16:10:53;;;;;;;18.85;16.70;;;22.90;40.60;;;;;;6236733;28;20049;-82
2022/04/22 16:17:16;;;;;;;7.28;5.70;;;22.50;42.30;;;;;;6247473;28;20045;-82
2022/04/22 16:20:19;;;;;;;9.32;4.35;;;22.30;42.00;;;;;;6232833;28;20046;-82
2022/04/22 16:23:22;;;;;;;6.80;4.35;;;22.10;42.00;;;;;;6222742;28;20054;-82
2022/04/22 16:26:24;;;;;;;6.80;4.13;;;21.80;42.30;;;;;;6238343;28;20499;-82
2022/04/22 16:29:26;;;;;;;7.05;3.92;;;21.70;42.90;;;;;;6250591;28;20049;-83
2022/04/22 16:32:29;;;;;;;9.85;3.97;;;21.70;42.90;;;;;;6253207;28;20046;-83
2022/04/22 16:35:33;;;;;;;6.50;3.25;;;21.70;43.10;;;;;;6256529;28;20068;-82
2022/04/22 16:38:35;;;;;;;6.85;3.90;;;21.50;42.90;;;;;;6257387;28;20076;-83
2022/04/22 16:41:36;;;;;;;5.72;4.35;;;21.40;43.20;;;;;;6258088;28;20559;-82
2022/04/22 16:44:39;;;;;;;8.55;4.05;;;21.30;43.20;;;;;;6258197;28;20059;-82
2022/04/22 16:47:42;;;;;;;5.07;4.10;;;21.20;43.00;;;;;;6254865;28;20507;-83
2022/04/22 16:50:44;;;;;;;9.18;3.92;;;21.10;43.20;;;;;;6249951;28;20512;-83
2022/04/22 16:53:45;;;;;;;5.15;3.83;;;21.00;43.50;;;;;;6250018;28;20600;-82
2022/04/22 16:56:47;;;;;;;9.35;3.45;;;20.90;43.40;;;;;;6242867;28;20053;-83
2022/04/22 16:59:49;;;;;;;8.95;2.90;;;20.90;44.40;;;;;;6226234;28;20072;-82
2022/04/22 17:02:53;;;;;;;5.97;3.85;;;20.80;43.80;;;;;;6226241;28;20105;-82
2022/04/22 17:05:55;;;;;;;6.40;3.97;;;20.80;43.80;;;;;;6228309;28;20078;-83
2022/04/22 17:08:57;;;;;;;7.00;3.20;;;20.70;44.50;;;;;;6227939;28;20041;-83
2022/04/22 17:11:59;;;;;;;7.50;2.88;;;20.70;44.20;;;;;;6237604;28;20041;-83
2022/04/22 17:25:00;;;;;;;7.47;3.20;;;20.30;45.00;;;;;;6257639;28;20109;-83
2022/04/22 17:28:02;;;;;;;5.78;2.92;;;20.30;45.50;;;;;;6252034;28;20148;-83
2022/04/22 17:31:04;;;;;;;6.43;3.15;;;20.30;45.60;;;;;;6258652;28;20041;-83
2022/04/22 17:34:07;;;;;;;4.03;2.78;;;20.30;45.60;;;;;;6258151;28;20051;-83